createdAt,value
2022-11-09T00:00:43.908Z,76412.59
2022-11-09T00:03:13.420Z,76416.69
2022-11-09T00:05:41.481Z,76404.44
2022-11-09T00:08:10.756Z,76390.16
2022-11-09T00:10:39.320Z,76375.91
2022-11-09T00:13:07.285Z,76371.81
2022-11-09T00:15:35.032Z,76361.63
2022-11-09T00:18:03.764Z,76361.63
2022-11-09T00:20:32.911Z,76355.50
2022-11-09T00:23:00.679Z,76357.53
2022-11-09T00:25:28.522Z,76355.50
2022-11-09T00:27:56.306Z,76347.34
2022-11-09T00:30:24.082Z,76355.50
2022-11-09T00:32:51.934Z,76369.78
2022-11-09T00:35:19.715Z,76363.66
2022-11-09T00:37:48.955Z,76363.66
2022-11-09T00:40:17.318Z,76359.59
2022-11-09T00:42:45.110Z,76351.44
2022-11-09T00:45:12.876Z,76359.59
2022-11-09T00:47:40.696Z,76367.75
2022-11-09T00:50:09.309Z,76359.59
2022-11-09T00:52:37.241Z,76361.63
2022-11-09T00:55:07.134Z,76367.75
2022-11-09T00:57:34.896Z,76363.66
2022-11-09T01:00:02.686Z,76363.66
2022-11-09T01:02:30.521Z,76367.75
2022-11-09T01:04:58.293Z,76375.91
2022-11-09T01:07:26.105Z,76375.91
2022-11-09T01:09:53.934Z,76379.97
2022-11-09T01:12:23.086Z,76375.91
2022-11-09T01:14:50.866Z,76377.94
2022-11-09T01:17:18.721Z,76367.75
2022-11-09T01:19:46.501Z,76363.66
2022-11-09T01:22:14.327Z,76363.66
2022-11-09T01:24:42.196Z,76371.81
2022-11-09T01:27:10.057Z,76373.84
2022-11-09T01:29:39.183Z,76363.66
2022-11-09T01:32:07.021Z,76363.66
2022-11-09T01:34:34.769Z,76367.75
2022-11-09T01:37:02.586Z,76359.59
2022-11-09T01:39:30.482Z,76359.59
2022-11-09T01:41:58.273Z,76355.50
2022-11-09T01:44:28.497Z,76349.38
2022-11-09T01:47:02.023Z,76347.34
2022-11-09T01:49:41.698Z,76343.28
2022-11-09T01:52:17.014Z,76335.13
2022-11-09T01:54:47.718Z,76322.88
2022-11-09T01:57:20.421Z,76312.69
2022-11-09T01:59:54.513Z,76310.66
2022-11-09T02:02:24.402Z,76318.81
2022-11-09T02:04:58.493Z,76322.88
2022-11-09T02:07:26.837Z,76320.84
2022-11-09T02:09:59.974Z,76306.56
2022-11-09T02:12:30.460Z,76302.50
2022-11-09T02:14:59.690Z,76296.38
2022-11-09T02:17:30.764Z,76290.25
2022-11-09T02:19:59.326Z,76298.41
2022-11-09T02:22:28.484Z,76304.53
2022-11-09T02:24:56.716Z,76308.59
2022-11-09T02:27:25.324Z,76314.72
2022-11-09T02:29:54.111Z,76306.56
2022-11-09T02:32:25.556Z,76298.41
2022-11-09T02:34:53.390Z,76302.50
2022-11-09T02:37:30.910Z,76294.34
2022-11-09T02:40:01.551Z,76294.34
2022-11-09T02:42:30.169Z,76306.56
2022-11-09T02:45:00.555Z,76306.56
2022-11-09T02:47:28.740Z,76306.56
2022-11-09T02:49:57.915Z,76308.59
2022-11-09T02:52:25.868Z,76288.22
2022-11-09T02:54:55.547Z,76282.09
2022-11-09T02:57:23.374Z,76278.03
2022-11-09T02:59:51.132Z,76278.03
2022-11-09T03:02:18.989Z,76278.03
2022-11-09T03:04:46.755Z,76273.94
2022-11-09T03:07:14.614Z,76271.91
2022-11-09T03:09:42.466Z,76276.00
2022-11-09T03:12:31.395Z,76273.94
2022-11-09T03:15:00.862Z,76278.03
2022-11-09T03:17:29.522Z,76276.00
2022-11-09T03:19:57.615Z,76286.19
2022-11-09T03:22:25.573Z,76280.06
2022-11-09T03:24:53.434Z,76273.94
2022-11-09T03:27:22.860Z,76273.94
2022-11-09T03:29:50.672Z,76280.06
2022-11-09T03:32:18.530Z,76276.00
2022-11-09T03:34:46.335Z,76286.19
2022-11-09T03:37:14.250Z,76290.25
2022-11-09T03:39:42.070Z,76286.19
2022-11-09T03:42:09.887Z,76294.34
2022-11-09T03:44:39.056Z,76300.47
2022-11-09T03:47:06.901Z,76294.34
2022-11-09T03:49:34.674Z,76292.28
2022-11-09T03:52:02.786Z,76298.41
2022-11-09T03:54:30.546Z,76306.56
2022-11-09T03:56:58.361Z,76310.66
2022-11-09T03:59:26.164Z,76298.41
2022-11-09T04:01:55.410Z,76294.34
2022-11-09T04:04:23.297Z,76294.34
2022-11-09T04:06:51.155Z,76294.34
2022-11-09T04:09:18.953Z,76298.41
2022-11-09T04:11:46.748Z,76290.25
2022-11-09T04:14:14.565Z,76288.22
2022-11-09T04:16:42.590Z,76290.25
2022-11-09T04:19:11.760Z,76294.34
2022-11-09T04:21:39.660Z,76298.41
2022-11-09T04:24:07.642Z,76296.38
2022-11-09T04:26:35.443Z,76294.34
2022-11-09T04:29:03.283Z,76298.41
2022-11-09T04:31:31.205Z,76298.41
2022-11-09T04:33:58.985Z,76298.41
2022-11-09T04:36:28.181Z,76302.50
2022-11-09T04:38:56.007Z,76298.41
2022-11-09T04:41:23.845Z,76298.41
2022-11-09T04:43:51.653Z,76302.50
2022-11-09T04:46:19.474Z,76298.41
2022-11-09T04:48:47.268Z,76302.50
2022-11-09T04:51:15.151Z,76310.66
2022-11-09T04:53:44.271Z,76306.56
2022-11-09T04:56:12.704Z,76310.66
2022-11-09T04:58:40.645Z,76302.50
2022-11-09T05:01:11.170Z,76306.56
2022-11-09T05:03:39.608Z,76298.41
2022-11-09T05:06:21.869Z,76302.50
2022-11-09T05:08:51.261Z,76302.50
2022-11-09T05:11:19.117Z,76306.56
2022-11-09T05:13:47.236Z,76322.88
2022-11-09T05:16:17.493Z,76337.16
2022-11-09T05:18:45.666Z,76326.97
2022-11-09T05:21:13.778Z,76316.75
2022-11-09T05:23:58.997Z,76314.72
2022-11-09T05:26:34.409Z,76310.66
2022-11-09T05:29:04.440Z,76306.56
2022-11-09T05:31:32.533Z,76314.72
2022-11-09T05:34:01.075Z,76314.72
2022-11-09T05:36:30.524Z,76322.88
2022-11-09T05:38:58.857Z,76324.91
2022-11-09T05:41:26.880Z,76322.88
2022-11-09T05:43:55.995Z,76326.97
2022-11-09T05:46:23.942Z,76329.00
2022-11-09T05:48:51.734Z,76326.97
2022-11-09T05:51:19.521Z,76326.97
2022-11-09T05:53:47.415Z,76316.75
2022-11-09T05:56:16.342Z,76322.88
2022-11-09T05:58:44.598Z,76324.91
2022-11-09T06:01:17.201Z,76326.97
2022-11-09T06:03:45.088Z,76333.06
2022-11-09T06:06:14.782Z,76343.28
2022-11-09T06:08:42.991Z,76343.28
2022-11-09T06:11:15.743Z,76351.44
2022-11-09T06:13:46.298Z,76351.44
2022-11-09T06:16:15.464Z,76355.50
2022-11-09T06:18:43.233Z,76353.47
2022-11-09T06:21:11.372Z,76351.44
2022-11-09T06:23:39.152Z,76351.44
2022-11-09T06:26:09.732Z,76353.47
2022-11-09T06:28:38.397Z,76357.53
2022-11-09T06:31:07.852Z,76355.50
2022-11-09T06:33:37.818Z,76363.66
2022-11-09T06:36:06.548Z,76363.66
2022-11-09T06:38:34.330Z,76373.84
2022-11-09T06:41:02.233Z,76375.91
2022-11-09T06:43:30.621Z,76375.91
2022-11-09T06:45:58.501Z,76367.75
2022-11-09T06:48:26.242Z,76367.75
2022-11-09T06:50:55.430Z,76367.75
2022-11-09T06:53:23.883Z,76367.75
2022-11-09T06:55:51.937Z,76359.59
2022-11-09T06:58:20.823Z,76357.53
2022-11-09T07:00:48.810Z,76363.66
2022-11-09T07:03:19.039Z,76367.75
2022-11-09T07:05:48.434Z,76363.66
2022-11-09T07:08:18.653Z,76363.66
2022-11-09T07:10:46.854Z,76355.50
2022-11-09T07:13:14.976Z,76371.81
2022-11-09T07:15:42.800Z,76373.84
2022-11-09T07:18:12.984Z,76371.81
2022-11-09T07:20:40.922Z,76373.84
2022-11-09T07:23:08.777Z,76377.94
2022-11-09T07:25:38.209Z,76371.81
2022-11-09T07:28:07.602Z,76375.91
2022-11-09T07:30:36.581Z,76371.81
2022-11-09T07:33:09.698Z,76365.69
2022-11-09T07:35:38.246Z,76361.63
2022-11-09T07:38:06.064Z,76355.50
2022-11-09T07:40:34.167Z,76355.50
2022-11-09T07:43:05.116Z,76351.44
2022-11-09T07:45:34.104Z,76347.34
2022-11-09T07:48:03.160Z,76343.28
2022-11-09T07:50:31.918Z,76343.28
2022-11-09T07:53:01.347Z,76347.34
2022-11-09T07:55:30.698Z,76347.34
2022-11-09T07:57:59.310Z,76349.38
2022-11-09T08:00:30.826Z,76347.34
2022-11-09T08:02:58.723Z,76339.19
2022-11-09T08:05:26.564Z,76347.34
2022-11-09T08:07:58.052Z,76355.50
2022-11-09T08:10:27.340Z,76353.47
2022-11-09T08:12:56.344Z,76351.44
2022-11-09T08:15:25.076Z,76351.44
2022-11-09T08:17:54.440Z,76355.50
2022-11-09T08:20:22.598Z,76359.59
2022-11-09T08:22:50.362Z,76355.50
2022-11-09T08:25:18.449Z,76359.59
2022-11-09T08:27:46.216Z,76351.44
2022-11-09T08:30:16.516Z,76343.28
2022-11-09T08:32:45.305Z,76337.16
2022-11-09T08:35:17.916Z,76343.28
2022-11-09T08:37:46.968Z,76343.28
2022-11-09T08:40:16.609Z,76335.13
2022-11-09T08:42:44.818Z,76339.19
2022-11-09T08:45:12.842Z,76335.13
2022-11-09T08:47:41.106Z,76349.38
2022-11-09T08:50:11.100Z,76349.38
2022-11-09T08:52:41.142Z,76351.44
2022-11-09T08:55:09.668Z,76355.50
2022-11-09T08:57:37.514Z,76351.44
2022-11-09T09:00:07.155Z,76355.50
2022-11-09T09:02:35.270Z,76347.34
2022-11-09T09:05:03.220Z,76351.44
2022-11-09T09:07:31.071Z,76355.50
2022-11-09T09:10:00.255Z,76347.34
2022-11-09T09:12:28.050Z,76345.31
2022-11-09T09:14:56.120Z,76351.44
2022-11-09T09:17:24.182Z,76357.53
2022-11-09T09:19:52.003Z,76365.69
2022-11-09T09:22:20.155Z,76371.81
2022-11-09T09:24:48.192Z,76367.75
2022-11-09T09:27:17.361Z,76373.84
2022-11-09T09:29:45.284Z,76371.81
2022-11-09T09:32:13.102Z,76373.84
2022-11-09T09:34:40.857Z,76382.00
2022-11-09T09:37:08.776Z,76398.31
2022-11-09T09:39:36.754Z,76412.59
2022-11-09T09:42:07.582Z,76414.63
2022-11-09T09:44:45.157Z,76424.84
2022-11-09T09:47:16.900Z,76408.53
2022-11-09T09:49:48.421Z,76404.44
2022-11-09T09:52:22.407Z,76384.06
2022-11-09T09:55:00.549Z,76390.16
2022-11-09T09:57:31.055Z,76400.38
2022-11-09T10:00:02.488Z,76398.31
2022-11-09T10:02:32.477Z,76392.22
2022-11-09T10:05:03.129Z,76384.06
2022-11-09T10:07:35.225Z,76382.00
2022-11-09T10:10:18.335Z,76384.06
2022-11-09T10:13:07.500Z,76384.06
2022-11-09T10:15:44.368Z,76375.91
2022-11-09T10:18:27.925Z,76363.66
2022-11-09T10:21:11.254Z,76367.75
2022-11-09T10:23:55.690Z,76382.00
2022-11-09T10:26:29.515Z,76379.97
2022-11-09T10:29:15.810Z,76377.94
2022-11-09T10:31:48.127Z,76365.69
2022-11-09T10:34:20.592Z,76355.50
2022-11-09T10:36:57.420Z,76353.47
2022-11-09T10:39:28.688Z,76351.44
2022-11-09T10:41:56.566Z,76359.59
2022-11-09T10:44:24.414Z,76363.66
2022-11-09T10:47:09.125Z,76351.44
2022-11-09T10:49:38.250Z,76363.66
2022-11-09T10:52:07.458Z,76365.69
2022-11-09T10:54:37.946Z,76367.75
2022-11-09T10:57:15.687Z,76371.81
2022-11-09T10:59:51.369Z,76365.69
2022-11-09T11:02:52.676Z,76359.59
2022-11-09T11:05:40.143Z,76361.63
2022-11-09T11:08:27.316Z,76345.31
2022-11-09T11:11:32.119Z,76339.19
2022-11-09T11:14:15.855Z,76345.31
2022-11-09T11:16:46.908Z,76349.38
2022-11-09T11:19:35.549Z,76339.19
2022-11-09T11:22:23.116Z,76335.13
2022-11-09T11:24:59.482Z,76335.13
2022-11-09T11:27:38.592Z,76343.28
2022-11-09T11:30:12.648Z,76337.16
2022-11-09T11:32:44.153Z,76351.44
2022-11-09T11:35:17.366Z,76339.19
2022-11-09T11:38:00.139Z,76331.03
2022-11-09T11:40:33.396Z,76331.03
2022-11-09T11:43:30.934Z,76335.13
2022-11-09T11:46:11.399Z,76329.00
2022-11-09T11:48:55.904Z,76335.13
2022-11-09T11:51:36.257Z,76335.13
2022-11-09T11:54:19.910Z,76329.00
2022-11-09T11:56:55.505Z,76339.19
2022-11-09T11:59:54.980Z,76326.97
2022-11-09T12:02:49.244Z,76326.97
2022-11-09T12:05:34.425Z,76320.84
2022-11-09T12:08:11.991Z,76320.84
2022-11-09T12:10:51.163Z,76312.69
2022-11-09T12:13:36.144Z,76318.81
2022-11-09T12:16:09.199Z,76322.88
2022-11-09T12:18:50.290Z,76318.81
2022-11-09T12:21:20.403Z,76314.72
2022-11-09T12:24:04.529Z,76306.56
2022-11-09T12:27:04.683Z,76310.66
2022-11-09T12:29:40.867Z,76306.56
2022-11-09T12:32:18.504Z,76304.53
2022-11-09T12:34:53.774Z,76306.56
2022-11-09T12:37:25.913Z,76304.53
2022-11-09T12:39:55.141Z,76310.66
2022-11-09T12:42:32.777Z,76310.66
2022-11-09T12:45:08.045Z,76302.50
2022-11-09T12:47:41.584Z,76290.25
2022-11-09T12:50:14.540Z,76288.22
2022-11-09T12:52:44.516Z,76284.16
2022-11-09T12:55:15.493Z,76276.00
2022-11-09T12:57:48.337Z,76278.03
2022-11-09T13:00:53.634Z,76267.84
2022-11-09T13:03:27.750Z,76269.88
2022-11-09T13:06:17.836Z,76278.03
2022-11-09T13:08:58.617Z,76290.25
2022-11-09T13:11:37.836Z,76300.47
2022-11-09T13:14:34.440Z,76296.38
2022-11-09T13:17:03.746Z,76296.38
2022-11-09T13:19:51.311Z,76302.50
2022-11-09T13:23:00.696Z,76310.66
2022-11-09T13:25:48.284Z,76310.66
2022-11-09T13:28:42.255Z,76306.56
2022-11-09T13:31:12.256Z,76306.56
2022-11-09T13:33:42.881Z,76306.56
2022-11-09T13:36:20.905Z,76304.53
2022-11-09T13:39:22.118Z,76298.41
2022-11-09T13:41:49.958Z,76296.38
2022-11-09T13:44:37.776Z,76286.19
2022-11-09T13:47:22.871Z,76300.47
2022-11-09T13:49:51.847Z,76298.41
2022-11-09T13:52:49.491Z,76306.56
2022-11-09T13:55:26.970Z,76306.56
2022-11-09T13:57:57.103Z,76308.59
2022-11-09T14:00:26.669Z,76310.66
2022-11-09T14:02:58.784Z,76312.69
2022-11-09T14:05:29.156Z,76308.59
2022-11-09T14:07:57.037Z,76312.69
2022-11-09T14:10:40.148Z,76310.66
2022-11-09T14:13:23.418Z,76306.56
2022-11-09T14:15:58.091Z,76302.50
2022-11-09T14:18:43.196Z,76302.50
2022-11-09T14:21:25.626Z,76302.50
2022-11-09T14:23:54.209Z,76304.53
2022-11-09T14:26:24.548Z,76310.66
2022-11-09T14:28:52.293Z,76322.88
2022-11-09T14:31:25.062Z,76320.84
2022-11-09T14:34:02.525Z,76318.81
2022-11-09T14:36:32.567Z,76322.88
2022-11-09T14:39:02.710Z,76318.81
2022-11-09T14:41:31.308Z,76320.84
2022-11-09T14:44:01.468Z,76320.84
2022-11-09T14:46:32.484Z,76326.97
2022-11-09T14:49:04.153Z,76326.97
2022-11-09T14:51:34.263Z,76331.03
2022-11-09T14:54:03.650Z,76331.03
2022-11-09T14:56:33.899Z,76331.03
2022-11-09T14:59:05.476Z,76326.97
2022-11-09T15:01:33.366Z,76326.97
2022-11-09T15:04:12.072Z,76339.19
2022-11-09T15:06:47.107Z,76349.38
2022-11-09T15:09:20.906Z,76349.38
2022-11-09T15:11:49.993Z,76347.34
2022-11-09T15:14:26.413Z,76355.50
2022-11-09T15:17:01.500Z,76355.50
2022-11-09T15:19:33.607Z,76363.66
2022-11-09T15:22:01.673Z,76359.59
2022-11-09T15:24:30.646Z,76359.59
2022-11-09T15:26:58.853Z,76359.59
2022-11-09T15:29:37.337Z,76363.66
2022-11-09T15:32:15.260Z,76363.66
2022-11-09T15:34:54.792Z,76371.81
2022-11-09T15:37:27.003Z,76363.66
2022-11-09T15:39:55.385Z,76379.97
2022-11-09T15:42:23.478Z,76384.06
2022-11-09T15:44:55.839Z,76388.13
2022-11-09T15:47:31.529Z,76388.13
2022-11-09T15:50:01.350Z,76388.13
2022-11-09T15:52:29.405Z,76386.09
2022-11-09T15:54:57.470Z,76388.13
2022-11-09T15:57:25.468Z,76390.16
2022-11-09T15:59:53.329Z,76388.13
2022-11-09T16:02:21.079Z,76388.13
2022-11-09T16:04:48.852Z,76396.28
2022-11-09T16:07:18.097Z,76402.41
2022-11-09T16:09:45.954Z,76400.38
2022-11-09T16:12:13.720Z,76410.56
2022-11-09T16:14:41.606Z,76406.47
2022-11-09T16:17:09.398Z,76422.78
2022-11-09T16:19:39.550Z,76424.84
2022-11-09T16:22:08.492Z,76426.88
2022-11-09T16:24:37.613Z,76432.97
2022-11-09T16:27:12.751Z,76432.97
2022-11-09T16:29:50.154Z,76437.06
2022-11-09T16:32:18.197Z,76441.16
2022-11-09T16:34:57.796Z,76453.38
2022-11-09T16:37:37.082Z,76463.56
2022-11-09T16:40:10.784Z,76467.66
2022-11-09T16:42:39.187Z,76457.44
2022-11-09T16:45:11.891Z,76453.38
2022-11-09T16:47:45.057Z,76453.38
2022-11-09T16:50:13.163Z,76449.28
2022-11-09T16:52:40.970Z,76451.34
2022-11-09T16:55:10.767Z,76461.53
2022-11-09T16:57:38.711Z,76465.63
2022-11-09T17:00:07.853Z,76473.75
2022-11-09T17:02:35.996Z,76469.69
2022-11-09T17:05:03.949Z,76471.72
2022-11-09T17:07:42.179Z,76473.75
2022-11-09T17:10:12.151Z,76461.53
2022-11-09T17:12:40.896Z,76453.38
2022-11-09T17:15:09.992Z,76453.38
2022-11-09T17:17:37.839Z,76469.69
2022-11-09T17:20:07.084Z,76469.69
2022-11-09T17:22:34.911Z,76469.69
2022-11-09T17:25:03.093Z,76473.75
2022-11-09T17:27:32.242Z,76479.88
2022-11-09T17:29:59.996Z,76486.00
2022-11-09T17:32:28.282Z,76475.81
2022-11-09T17:34:56.119Z,76486.00
2022-11-09T17:37:23.968Z,76469.69
2022-11-09T17:39:51.839Z,76463.56
2022-11-09T17:42:19.710Z,76457.44
2022-11-09T17:44:48.860Z,76461.53
2022-11-09T17:47:16.909Z,76457.44
2022-11-09T17:49:44.660Z,76461.53
2022-11-09T17:52:12.494Z,76453.38
2022-11-09T17:54:40.390Z,76461.53
2022-11-09T17:57:08.145Z,76477.84
2022-11-09T17:59:35.957Z,76477.84
2022-11-09T18:02:05.165Z,76469.69
2022-11-09T18:04:32.928Z,76465.63
2022-11-09T18:07:00.933Z,76457.44
2022-11-09T18:09:41.168Z,76465.63
2022-11-09T18:12:10.500Z,76465.63
2022-11-09T18:14:38.327Z,76465.63
2022-11-09T18:17:07.490Z,76465.63
2022-11-09T18:19:35.353Z,76455.41
2022-11-09T18:22:04.860Z,76447.25
2022-11-09T18:24:34.470Z,76453.38
2022-11-09T18:27:02.430Z,76457.44
2022-11-09T18:29:30.276Z,76453.38
2022-11-09T18:31:58.071Z,76457.44
2022-11-09T18:34:27.197Z,76451.34
2022-11-09T18:36:55.313Z,76461.53
2022-11-09T18:39:26.053Z,76477.84
2022-11-09T18:41:54.577Z,76492.13
2022-11-09T18:44:22.454Z,76502.31
2022-11-09T18:46:50.227Z,76498.22
2022-11-09T18:49:20.030Z,76494.16
2022-11-09T18:51:49.400Z,76502.31
2022-11-09T18:54:17.202Z,76502.31
2022-11-09T18:56:46.119Z,76494.16
2022-11-09T18:59:14.171Z,76490.06
2022-11-09T19:01:42.080Z,76500.28
2022-11-09T19:04:12.947Z,76502.31
2022-11-09T19:06:40.846Z,76498.22
2022-11-09T19:09:31.462Z,76498.22
2022-11-09T19:12:01.354Z,76490.06
2022-11-09T19:14:30.163Z,76475.81
2022-11-09T19:16:57.992Z,76477.84
2022-11-09T19:19:27.114Z,76486.00
2022-11-09T19:21:57.616Z,76500.28
2022-11-09T19:24:29.962Z,76508.44
2022-11-09T19:26:57.996Z,76510.47
2022-11-09T19:29:25.783Z,76506.38
2022-11-09T19:31:54.914Z,76498.22
2022-11-09T19:34:23.164Z,76490.06
2022-11-09T19:36:50.947Z,76486.00
2022-11-09T19:39:18.835Z,76490.06
2022-11-09T19:41:48.539Z,76490.06
2022-11-09T19:44:18.034Z,76486.00
2022-11-09T19:46:46.459Z,76479.88
2022-11-09T19:49:14.387Z,76479.88
2022-11-09T19:51:42.323Z,76477.84
2022-11-09T19:54:12.715Z,76481.91
2022-11-09T19:56:40.860Z,76479.88
2022-11-09T19:59:15.575Z,76483.97
2022-11-09T20:01:44.108Z,76481.91
2022-11-09T20:04:11.953Z,76486.00
2022-11-09T20:06:40.827Z,76490.06
2022-11-09T20:09:11.115Z,76498.22
2022-11-09T20:11:56.488Z,76502.31
2022-11-09T20:14:25.690Z,76504.34
2022-11-09T20:16:54.730Z,76506.38
2022-11-09T20:19:24.606Z,76502.31
2022-11-09T20:21:52.726Z,76502.31
2022-11-09T20:24:20.579Z,76498.22
2022-11-09T20:26:48.421Z,76498.22
2022-11-09T20:29:16.262Z,76506.38
2022-11-09T20:31:45.473Z,76516.59
2022-11-09T20:34:13.288Z,76524.75
2022-11-09T20:36:41.160Z,76522.69
2022-11-09T20:39:08.929Z,76530.84
2022-11-09T20:41:36.706Z,76534.94
2022-11-09T20:44:04.650Z,76528.81
2022-11-09T20:46:36.163Z,76534.94
2022-11-09T20:49:05.809Z,76532.91
2022-11-09T20:51:33.707Z,76530.84
2022-11-09T20:54:07.231Z,76534.94
2022-11-09T20:56:35.542Z,76545.13
2022-11-09T20:59:03.322Z,76549.22
2022-11-09T21:01:31.280Z,76557.38
2022-11-09T21:03:59.282Z,76559.41
2022-11-09T21:06:28.566Z,76553.28
2022-11-09T21:08:57.073Z,76551.25
2022-11-09T21:11:28.641Z,76551.25
2022-11-09T21:13:56.798Z,76551.25
2022-11-09T21:16:25.194Z,76551.25
2022-11-09T21:18:53.112Z,76543.09
2022-11-09T21:21:23.068Z,76547.16
2022-11-09T21:24:09.723Z,76551.25
2022-11-09T21:26:55.046Z,76559.41
2022-11-09T21:29:42.085Z,76557.38
2022-11-09T21:32:11.549Z,76551.25
2022-11-09T21:34:39.574Z,76555.31
2022-11-09T21:37:08.015Z,76555.31
2022-11-09T21:39:37.342Z,76563.47
2022-11-09T21:42:05.619Z,76563.47
2022-11-09T21:44:34.387Z,76569.59
2022-11-09T21:47:02.879Z,76575.72
2022-11-09T21:49:30.766Z,76579.78
2022-11-09T21:52:00.595Z,76575.72
2022-11-09T21:54:28.807Z,76577.75
2022-11-09T21:56:58.361Z,76573.69
2022-11-09T21:59:26.236Z,76575.72
2022-11-09T22:01:54.168Z,76575.72
2022-11-09T22:04:24.104Z,76577.75
2022-11-09T22:06:51.953Z,76579.78
2022-11-09T22:09:20.029Z,76587.94
2022-11-09T22:12:05.299Z,76583.88
2022-11-09T22:14:51.881Z,76596.09
2022-11-09T22:17:19.737Z,76598.16
2022-11-09T22:20:05.307Z,76604.28
2022-11-09T22:22:33.951Z,76610.38
2022-11-09T22:25:01.764Z,76612.41
2022-11-09T22:27:31.143Z,76616.50
2022-11-09T22:30:00.642Z,76616.50
2022-11-09T22:32:28.531Z,76620.56
2022-11-09T22:34:56.345Z,76620.56
2022-11-09T22:37:24.135Z,76620.56
2022-11-09T22:39:51.992Z,76618.53
2022-11-09T22:42:19.816Z,76624.66
2022-11-09T22:44:47.565Z,76620.56
2022-11-09T22:47:16.752Z,76616.50
2022-11-09T22:49:44.504Z,76620.56
2022-11-09T22:52:12.293Z,76620.56
2022-11-09T22:54:40.137Z,76620.56
2022-11-09T22:57:07.916Z,76622.63
2022-11-09T22:59:35.688Z,76628.72
2022-11-09T23:02:03.681Z,76636.91
2022-11-09T23:04:32.781Z,76638.94
2022-11-09T23:07:00.678Z,76636.91
2022-11-09T23:09:28.876Z,76636.91
2022-11-09T23:11:56.654Z,76634.84
2022-11-09T23:14:38.343Z,76634.84
2022-11-09T23:17:26.438Z,76628.72
2022-11-09T23:19:54.573Z,76630.78
2022-11-09T23:22:22.384Z,76634.84
2022-11-09T23:25:07.922Z,76628.72
2022-11-09T23:27:35.801Z,76628.72
2022-11-09T23:30:04.294Z,76630.78
2022-11-09T23:32:32.087Z,76632.81
2022-11-09T23:35:01.291Z,76636.91
2022-11-09T23:37:29.044Z,76628.72
2022-11-09T23:39:56.826Z,76612.41
2022-11-09T23:42:24.665Z,76624.66
2022-11-09T23:44:52.460Z,76626.69
2022-11-09T23:47:20.292Z,76626.69
2022-11-09T23:49:48.120Z,76632.81
2022-11-09T23:52:17.671Z,76638.94
2022-11-09T23:54:45.979Z,76643.00
2022-11-09T23:57:13.883Z,76645.03
2022-11-09T23:59:41.724Z,76630.78
